Time;durP1;ratioP1;P1;durP2;ratioP2;P2;SDS_P1;SDS_P2;PMS_P1;PMS_P2;Temp;Humidity;BMP_temperature;BMP_pressure;BME280_temperature;BME280_humidity;BME280_pressure;Samples;Min_cycle;Max_cycle;Signal;HPM_P1;HPM_P2
2021/10/05 02:18:19;;;;;;;4.53;1.67;;;13.10;93.90;;;10.81;100.00;100151.88;2678084;22;20060;-84
2021/10/05 02:20:47;;;;;;;5.95;1.88;;;13.10;94.00;;;10.74;99.92;100151.00;5089268;28;20083;-84
2021/10/05 02:23:14;;;;;;;4.55;1.58;;;13.10;93.90;;;10.72;99.97;100144.91;5089518;28;20052;-84
2021/10/05 02:25:41;;;;;;;3.42;1.65;;;13.10;93.90;;;10.66;100.00;100146.53;5090774;28;20113;-84
2021/10/05 02:28:09;;;;;;;3.33;1.65;;;13.00;93.80;;;10.64;100.00;100137.72;5080218;28;20079;-84
2021/10/05 02:30:36;;;;;;;5.68;1.58;;;13.00;93.80;;;10.64;100.00;100136.84;5060488;28;20067;-84
2021/10/05 02:33:05;;;;;;;4.05;1.73;;;13.00;93.70;;;10.62;100.00;100133.47;5050475;28;20120;-84
2021/10/05 02:35:33;;;;;;;3.47;1.60;;;13.00;93.90;;;10.59;100.00;100128.44;5050263;28;20049;-84
2021/10/05 02:38:01;;;;;;;3.53;1.50;;;12.90;93.90;;;10.57;100.00;100132.19;5049776;28;20559;-84
2021/10/05 02:40:28;;;;;;;3.40;1.40;;;12.90;94.00;;;10.58;100.00;100122.13;5050200;28;20037;-85
2021/10/05 02:42:55;;;;;;;4.15;1.40;;;12.90;94.10;;;10.67;100.00;100120.97;5063884;28;20135;-85
2021/10/05 02:45:22;;;;;;;4.05;1.70;;;12.90;94.30;;;10.68;100.00;100114.50;5070042;28;20530;-84
2021/10/05 02:47:50;;;;;;;4.38;1.60;;;12.90;94.30;;;10.71;100.00;100115.97;5069599;28;20139;-84
2021/10/05 02:50:17;;;;;;;3.30;1.40;;;12.90;94.40;;;10.73;100.00;100113.91;5069495;28;20044;-85
2021/10/05 02:52:45;;;;;;;4.72;1.65;;;12.90;94.50;;;10.66;100.00;100102.97;5055467;28;20049;-84
2021/10/05 02:55:13;;;;;;;5.43;1.80;;;12.90;94.60;;;10.72;100.00;100109.53;5049822;28;20048;-84
2021/10/05 02:57:40;;;;;;;3.22;1.60;;;12.90;94.70;;;10.78;100.00;100097.84;5049651;28;20048;-84
2021/10/05 03:00:09;;;;;;;4.50;1.60;;;12.90;94.70;;;10.78;100.00;100095.13;5049038;28;20477;-84
2021/10/05 03:02:36;;;;;;;3.75;1.55;;;12.90;94.70;;;10.82;100.00;100096.41;5049833;28;20049;-85
2021/10/05 03:05:05;;;;;;;6.93;1.80;;;12.90;94.90;;;10.85;100.00;100090.59;5049133;28;20119;-84
2021/10/05 03:07:33;;;;;;;3.80;1.80;;;12.90;94.90;;;10.87;100.00;100082.19;5049767;28;20057;-84
2021/10/05 03:10:01;;;;;;;3.88;1.77;;;12.90;95.00;;;10.95;100.00;100093.78;5047765;28;20124;-84
2021/10/05 03:12:29;;;;;;;4.43;1.63;;;13.00;95.00;;;11.01;100.00;100077.72;5073509;28;20093;-84
2021/10/05 03:14:56;;;;;;;5.97;1.65;;;13.00;95.00;;;10.99;100.00;100064.28;5087723;28;20122;-84
2021/10/05 03:17:23;;;;;;;3.30;1.40;;;13.00;95.00;;;10.94;100.00;100064.03;5068082;28;20044;-85
2021/10/05 03:19:50;;;;;;;5.38;1.65;;;13.00;95.00;;;10.90;100.00;100070.91;5068712;28;20116;-84
2021/10/05 03:22:18;;;;;;;4.65;1.60;;;13.00;94.90;;;10.93;100.00;100063.19;5069094;28;20465;-84
2021/10/05 03:24:45;;;;;;;5.85;1.67;;;13.00;94.90;;;10.93;100.00;100071.38;5069262;28;20059;-84
2021/10/05 03:27:14;;;;;;;5.97;1.80;;;13.00;95.00;;;10.94;100.00;100062.13;5068793;28;20062;-84
2021/10/05 03:29:41;;;;;;;4.35;1.50;;;13.00;95.00;;;10.89;100.00;100064.63;5068718;28;20071;-84
2021/10/05 03:32:09;;;;;;;4.85;1.80;;;13.00;94.90;;;10.87;100.00;100061.28;5068668;28;20123;-84
2021/10/05 03:34:37;;;;;;;3.55;1.60;;;13.00;94.90;;;10.83;100.00;100059.97;5069100;28;20076;-84
2021/10/05 03:37:05;;;;;;;2.88;1.55;;;13.00;94.80;;;10.88;100.00;100052.06;5068940;28;20044;-85
2021/10/05 03:39:32;;;;;;;3.33;1.42;;;13.00;94.90;;;10.88;100.00;100041.16;5068705;28;20040;-84
2021/10/05 03:42:00;;;;;;;5.18;1.65;;;13.00;95.00;;;10.83;100.00;100043.63;5068795;28;20048;-84
2021/10/05 03:44:28;;;;;;;5.28;1.58;;;13.00;94.90;;;10.86;100.00;100040.53;5067634;28;20212;-84
2021/10/05 03:46:56;;;;;;;4.70;1.70;;;13.00;95.10;;;10.78;100.00;100035.22;5068029;28;20127;-85
2021/10/05 03:49:23;;;;;;;3.40;1.55;;;13.00;94.90;;;10.81;100.00;100028.53;5066832;28;20044;-85
2021/10/05 03:51:50;;;;;;;5.65;1.67;;;13.00;95.00;;;10.80;100.00;100032.31;5068904;28;20494;-84
2021/10/05 03:54:17;;;;;;;5.35;1.60;;;13.00;95.00;;;10.81;100.00;100026.66;5068514;28;20041;-84
2021/10/05 03:56:45;;;;;;;6.32;2.03;;;13.00;95.10;;;10.77;100.00;100022.66;5067271;28;20052;-84
2021/10/05 03:59:15;;;;;;;3.20;1.58;;;12.90;95.10;;;10.78;100.00;100020.78;5068086;28;20675;-84
2021/10/05 04:01:44;;;;;;;4.03;1.92;;;12.90;95.30;;;10.74;100.00;100021.19;5068659;28;20047;-84
2021/10/05 04:04:12;;;;;;;3.30;1.80;;;12.90;95.30;;;10.76;100.00;100021.81;5068420;28;20120;-85
2021/10/05 04:06:40;;;;;;;3.97;1.73;;;12.90;95.40;;;10.80;100.00;100022.25;5067151;28;20140;-84
2021/10/05 04:09:08;;;;;;;6.32;2.40;;;13.00;95.30;;;10.84;100.00;100007.22;5068192;28;20045;-84
2021/10/05 04:11:36;;;;;;;4.60;1.80;;;13.00;95.40;;;10.81;100.00;100006.78;5068252;28;20110;-85
2021/10/05 04:14:04;;;;;;;3.45;1.75;;;13.00;95.40;;;10.80;100.00;100005.09;5084033;28;20064;-84
2021/10/05 04:16:31;;;;;;;3.17;1.65;;;13.00;95.20;;;10.79;100.00;100004.25;5068260;28;20072;-87
2021/10/05 04:19:00;;;;;;;4.85;2.00;;;13.00;95.40;;;10.78;100.00;99996.28;5067561;28;20123;-85
2021/10/05 04:21:28;;;;;;;5.05;2.03;;;13.00;95.40;;;10.79;100.00;99993.34;5068435;28;20094;-86
2021/10/05 04:23:55;;;;;;;6.30;1.83;;;13.00;95.40;;;10.74;100.00;99990.41;5068564;28;20053;-87
2021/10/05 04:26:22;;;;;;;5.47;1.80;;;13.00;95.30;;;10.72;100.00;99992.50;5068172;28;20273;-87
2021/10/05 04:28:50;;;;;;;5.93;2.00;;;13.00;95.30;;;10.70;100.00;99995.41;5067912;28;20076;-88
2021/10/05 04:31:17;;;;;;;4.03;2.03;;;12.90;95.40;;;10.70;100.00;99989.09;5063109;28;20041;-88
2021/10/05 04:33:44;;;;;;;4.95;2.33;;;12.90;95.40;;;10.75;100.00;99983.91;5046887;28;20049;-87
2021/10/05 04:36:13;;;;;;;4.30;2.10;;;12.90;95.60;;;10.67;100.00;99993.06;5048574;28;20045;-87
2021/10/05 04:38:41;;;;;;;4.15;1.85;;;12.90;95.40;;;10.59;100.00;99981.50;5065843;28;20135;-88
2021/10/05 04:41:11;;;;;;;5.65;2.10;;;12.90;95.30;;;10.62;100.00;99981.09;5066921;28;20571;-89
2021/10/05 04:43:38;;;;;;;4.00;2.10;;;12.90;95.60;;;10.57;100.00;99974.38;5051139;28;20604;-88
2021/10/05 04:46:05;;;;;;;3.58;1.98;;;12.90;95.50;;;10.52;100.00;99974.09;5047868;28;20049;-88
2021/10/05 04:48:33;;;;;;;4.20;2.30;;;12.90;95.40;;;10.47;100.00;99968.44;5048535;28;20041;-88
2021/10/05 04:51:00;;;;;;;4.75;2.22;;;12.90;95.50;;;10.52;100.00;99970.56;5046804;28;20045;-87
2021/10/05 04:53:31;;;;;;;8.15;2.38;;;12.90;95.50;;;10.54;100.00;99966.59;5046525;28;20592;-88
2021/10/05 04:55:59;;;;;;;5.07;2.38;;;12.80;95.50;;;10.52;100.00;99965.94;5047870;28;20045;-88
2021/10/05 04:58:26;;;;;;;4.68;2.47;;;12.80;95.60;;;10.53;100.00;99950.50;5047681;28;20087;-87
2021/10/05 05:00:53;;;;;;;5.45;2.20;;;12.80;95.50;;;10.47;100.00;99951.25;5046441;28;20528;-87
2021/10/05 05:03:22;;;;;;;5.55;2.60;;;12.80;95.50;;;10.46;100.00;99955.88;5047920;28;20076;-88
2021/10/05 05:05:50;;;;;;;6.40;2.80;;;12.80;95.60;;;10.49;100.00;99941.00;5064974;28;20051;-90
2021/10/05 05:08:39;;;;;;;5.53;2.38;;;12.80;95.70;;;10.48;100.00;99940.19;5067122;28;20075;-86
2021/10/05 05:11:06;;;;;;;5.63;3.03;;;12.80;95.70;;;10.54;100.00;99942.09;5068468;28;20044;-85
2021/10/05 05:13:33;;;;;;;4.72;2.80;;;12.80;95.90;;;10.55;100.00;99938.34;5087940;28;20118;-87
2021/10/05 05:16:01;;;;;;;4.68;2.33;;;12.80;95.90;;;10.54;100.00;99939.38;5075829;28;20135;-85
2021/10/05 05:18:28;;;;;;;5.85;2.85;;;12.80;96.00;;;10.58;100.00;99939.81;5060922;28;20049;-86
2021/10/05 05:20:55;;;;;;;4.07;2.63;;;12.80;96.00;;;10.52;100.00;99935.19;5060836;28;20048;-86
2021/10/05 05:23:23;;;;;;;5.45;2.67;;;12.80;96.00;;;10.56;100.00;99934.56;5054296;28;20048;-87
2021/10/05 05:25:51;;;;;;;5.22;3.00;;;12.80;96.10;;;10.59;100.00;99925.19;5051020;28;20047;-87
2021/10/05 05:28:20;;;;;;;5.57;2.95;;;12.80;96.10;;;10.63;100.00;99921.03;5073483;28;20044;-87
2021/10/05 05:30:47;;;;;;;6.07;3.28;;;12.80;96.10;;;10.63;100.00;99922.91;5089885;28;20133;-87
2021/10/05 05:33:18;;;;;;;5.22;3.10;;;12.80;96.10;;;10.62;100.00;99923.94;5050983;28;20041;-91
2021/10/05 05:35:46;;;;;;;6.00;3.25;;;12.80;96.10;;;10.56;100.00;99912.81;5059053;28;20461;-87
2021/10/05 05:38:13;;;;;;;8.55;3.30;;;12.80;96.10;;;10.67;100.00;99918.75;5073532;28;20071;-87
2021/10/05 05:40:41;;;;;;;5.72;3.28;;;12.80;96.10;;;10.64;100.00;99908.25;5089742;28;20040;-87
2021/10/05 05:43:09;;;;;;;5.20;3.10;;;12.80;96.10;;;10.63;100.00;99914.75;5088814;28;20055;-88
2021/10/05 05:45:49;;;;;;;6.82;3.30;;;12.80;96.20;;;10.71;100.00;99903.69;5091170;28;20036;-87
2021/10/05 05:48:21;;;;;;;6.57;3.60;;;12.80;96.40;;;10.69;100.00;99900.34;5089935;28;20048;-88
2021/10/05 05:50:50;;;;;;;5.93;3.25;;;12.80;96.30;;;10.70;100.00;99904.72;5089921;28;20044;-88
2021/10/05 05:53:18;;;;;;;6.32;3.75;;;12.80;96.30;;;10.68;100.00;99899.50;5089616;28;20097;-88
2021/10/05 05:55:46;;;;;;;6.90;3.80;;;12.80;96.50;;;10.69;100.00;99905.78;5089777;28;20419;-87
2021/10/05 05:58:17;;;;;;;7.72;3.83;;;12.80;96.50;;;10.71;100.00;99900.97;5090527;28;20101;-89
2021/10/05 06:00:51;;;;;;;7.35;3.63;;;12.80;96.50;;;10.74;100.00;99889.69;5078759;28;20144;-87
2021/10/05 06:03:26;;;;;;;7.93;3.72;;;12.80;96.60;;;10.77;100.00;99892.00;5049431;28;20041;-87
2021/10/05 06:05:53;;;;;;;6.18;3.80;;;12.90;96.80;;;10.79;100.00;99887.19;5049563;28;20045;-88
2021/10/05 06:08:22;;;;;;;8.93;4.07;;;12.90;96.70;;;10.81;100.00;99887.84;5050318;28;20246;-88
2021/10/05 06:10:55;;;;;;;5.88;3.63;;;12.90;96.80;;;10.90;100.00;99896.69;5050634;28;20049;-88
2021/10/05 06:13:27;;;;;;;5.55;3.20;;;12.90;96.80;;;10.99;100.00;99891.91;5089702;28;20114;-87
2021/10/05 06:16:06;;;;;;;;;;;;;;;;;;;;;
2021/10/05 06:18:36;;;;;;;5.78;3.05;;;12.90;97.00;;;11.05;100.00;99888.38;5068967;28;20052;-87
2021/10/05 06:21:06;;;;;;;5.50;3.45;;;12.90;97.00;;;11.01;100.00;99882.50;5070282;28;20044;-87
2021/10/05 06:23:33;;;;;;;6.35;3.63;;;13.00;96.90;;;11.05;100.00;99889.22;5070371;28;20037;-87
2021/10/05 06:26:00;;;;;;;5.85;3.50;;;13.00;97.00;;;11.12;100.00;99878.34;5070183;28;20079;-86
2021/10/05 06:28:34;;;;;;;6.65;3.80;;;13.00;97.00;;;11.15;100.00;99884.22;5069388;28;20497;-86
2021/10/05 06:31:08;;;;;;;5.88;3.30;;;13.10;97.10;;;11.18;100.00;99866.63;5080812;28;20536;-87
2021/10/05 06:33:38;;;;;;;5.82;3.22;;;13.10;97.00;;;11.18;100.00;99865.81;5082215;28;20055;-86
2021/10/05 06:36:11;;;;;;;6.43;3.55;;;13.10;97.00;;;11.20;100.00;99863.72;5070472;28;20044;-87
2021/10/05 06:38:46;;;;;;;7.13;3.35;;;13.10;97.00;;;11.27;100.00;99865.41;5069786;28;20055;-87
2021/10/05 06:41:23;;;;;;;6.90;3.65;;;13.10;97.00;;;11.34;100.00;99860.81;5074259;28;20040;-86
2021/10/05 06:43:54;;;;;;;12.18;3.97;;;13.20;96.90;;;11.44;100.00;99859.56;5066626;28;20059;-86
2021/10/05 06:46:24;;;;;;;5.77;3.27;;;13.20;96.90;;;11.47;100.00;99873.63;5070113;28;20405;-87
2021/10/05 06:48:51;;;;;;;6.15;3.15;;;13.30;97.10;;;11.53;100.00;99861.06;5069282;28;20329;-87
2021/10/05 06:51:21;;;;;;;5.68;3.33;;;13.30;97.10;;;11.58;100.00;99860.47;5069714;28;20068;-87
2021/10/05 06:53:50;;;;;;;5.07;3.20;;;13.30;97.00;;;11.64;100.00;99865.91;5069833;28;20040;-87
2021/10/05 06:56:20;;;;;;;5.63;3.42;;;13.30;97.10;;;11.65;100.00;99862.13;5069533;28;20067;-86
2021/10/05 06:58:50;;;;;;;7.85;3.58;;;13.40;97.10;;;11.66;100.00;99855.63;5069461;28;20052;-85
2021/10/05 07:01:23;;;;;;;5.45;3.35;;;13.40;97.00;;;11.78;100.00;99849.56;5069778;28;20051;-86
2021/10/05 07:03:54;;;;;;;7.13;3.67;;;13.40;97.00;;;11.91;100.00;99857.78;5069869;28;20547;-87
2021/10/05 07:06:24;;;;;;;6.72;3.60;;;13.50;97.10;;;12.00;100.00;99847.50;5069518;28;20500;-88
2021/10/05 07:08:55;;;;;;;7.03;3.35;;;13.50;97.20;;;12.09;100.00;99840.78;5050433;28;20055;-86
2021/10/05 07:11:25;;;;;;;7.00;3.65;;;13.60;97.00;;;12.17;100.00;99837.00;5055402;28;20036;-86
2021/10/05 07:14:00;;;;;;;5.53;3.70;;;13.60;97.00;;;12.25;99.54;99839.50;5088381;28;20465;-88
2021/10/05 07:16:29;;;;;;;6.03;3.38;;;13.70;96.90;;;12.33;99.71;99834.63;5055568;28;20053;-87
2021/10/05 07:18:57;;;;;;;5.18;3.15;;;13.80;97.00;;;12.37;99.30;99831.50;5048885;28;20532;-86
2021/10/05 07:21:24;;;;;;;4.80;3.03;;;13.80;97.00;;;12.45;99.21;99837.56;5049336;28;20095;-85
2021/10/05 07:23:51;;;;;;;4.68;3.00;;;13.90;97.00;;;12.48;98.79;99839.84;5049019;28;20045;-85
2021/10/05 07:26:19;;;;;;;5.93;3.05;;;13.90;96.80;;;12.54;98.06;99831.88;5049297;28;20045;-85
2021/10/05 07:28:47;;;;;;;6.60;3.05;;;14.00;96.70;;;12.64;98.03;99832.25;5048893;28;20115;-85
2021/10/05 07:31:15;;;;;;;4.93;2.78;;;14.00;96.60;;;12.72;97.27;99829.31;5047731;28;20144;-86
2021/10/05 07:33:44;;;;;;;4.95;2.70;;;14.10;96.60;;;12.79;97.05;99827.38;5049016;28;20041;-85
2021/10/05 07:36:12;;;;;;;5.07;2.50;;;14.10;96.20;;;12.75;96.60;99820.66;5049128;28;20075;-85
2021/10/05 07:38:39;;;;;;;4.85;2.60;;;14.20;95.90;;;12.70;96.29;99815.88;5064102;28;20063;-85
2021/10/05 07:41:07;;;;;;;7.43;3.03;;;14.20;95.60;;;12.66;96.63;99816.50;5048945;28;20747;-85
2021/10/05 07:43:35;;;;;;;5.25;2.80;;;14.20;95.40;;;12.64;96.24;99805.81;5048983;28;20080;-87
2021/10/05 07:46:03;;;;;;;4.03;2.65;;;14.20;95.10;;;12.64;95.96;99807.69;5048804;28;20041;-85
2021/10/05 07:48:30;;;;;;;5.13;2.70;;;14.20;95.30;;;12.70;95.77;99810.41;5048475;28;20524;-85
2021/10/05 07:51:00;;;;;;;8.07;2.75;;;14.30;95.10;;;12.81;96.03;99802.56;5048818;28;20790;-86
2021/10/05 07:53:31;;;;;;;4.82;2.40;;;14.30;94.70;;;12.91;95.29;99794.78;5048120;28;20060;-87
2021/10/05 07:55:58;;;;;;;4.43;2.30;;;14.30;95.30;;;12.99;94.63;99791.78;5048873;28;20079;-87
2021/10/05 07:58:25;;;;;;;5.05;2.20;;;14.40;94.80;;;13.03;94.90;99789.47;5048228;28;20049;-86
2021/10/05 08:00:56;;;;;;;4.35;2.30;;;14.40;94.70;;;13.05;94.88;99781.88;5048537;28;20036;-85
2021/10/05 08:03:23;;;;;;;4.25;2.05;;;14.50;94.80;;;13.13;93.44;99784.34;5048571;28;20513;-86
2021/10/05 08:05:51;;;;;;;4.65;2.20;;;14.50;93.70;;;13.24;93.10;99786.38;5048589;28;20049;-87
2021/10/05 08:08:20;;;;;;;4.13;2.03;;;14.50;93.70;;;13.35;92.37;99778.59;5048088;28;20051;-85
2021/10/05 08:10:47;;;;;;;4.40;1.60;;;14.60;93.80;;;13.39;92.78;99768.88;5048237;28;20036;-85
2021/10/05 08:13:14;;;;;;;3.10;1.45;;;14.60;93.90;;;13.39;92.05;99772.44;5052808;28;20068;-84
2021/10/05 08:15:42;;;;;;;3.10;1.55;;;14.70;93.70;;;13.39;92.75;99774.34;5049628;28;20123;-84
2021/10/05 08:18:09;;;;;;;4.43;1.63;;;14.70;93.60;;;13.39;92.36;99774.34;5080596;22;20127;-85
2021/10/05 08:20:37;;;;;;;3.25;1.60;;;14.80;93.50;;;13.43;92.80;99772.84;5048488;28;20493;-87
2021/10/05 08:23:04;;;;;;;3.33;1.58;;;14.80;93.50;;;13.51;92.48;99769.00;5061900;28;20045;-85
2021/10/05 08:25:33;;;;;;;4.38;1.88;;;14.80;93.40;;;13.60;91.44;99771.22;5068447;28;20682;-86
2021/10/05 08:28:01;;;;;;;5.10;1.83;;;14.90;93.20;;;13.69;89.14;99763.59;5046807;28;20468;-85
2021/10/05 08:30:28;;;;;;;4.10;1.50;;;15.00;92.00;;;13.81;90.02;99766.44;5048281;28;20114;-85
2021/10/05 08:32:56;;;;;;;5.45;1.40;;;15.00;92.10;;;13.89;89.66;99755.19;5048466;28;20079;-85
2021/10/05 08:35:23;;;;;;;3.65;1.70;;;15.10;91.90;;;13.97;89.29;99760.34;5048528;28;20045;-85
2021/10/05 08:37:52;;;;;;;3.78;1.30;;;15.10;91.80;;;14.09;88.87;99752.28;5048268;28;20581;-86
2021/10/05 08:40:20;;;;;;;2.30;1.10;;;15.20;91.70;;;14.18;88.26;99761.81;5061259;28;20470;-85
2021/10/05 08:42:48;;;;;;;2.38;1.10;;;15.30;91.10;;;14.14;87.40;99755.16;5065305;28;20090;-85
2021/10/05 08:45:17;;;;;;;2.70;1.20;;;15.40;90.50;;;14.18;87.99;99752.78;5068498;28;20048;-85
2021/10/05 08:47:44;;;;;;;3.78;1.27;;;15.40;90.90;;;14.21;87.20;99744.97;5068144;28;20048;-85
2021/10/05 08:50:12;;;;;;;2.83;1.08;;;15.40;90.20;;;14.31;86.82;99746.34;5067785;28;20133;-85
2021/10/05 08:52:43;;;;;;;2.53;1.08;;;15.50;89.90;;;14.44;87.24;99730.59;5068560;28;20068;-86
2021/10/05 08:55:10;;;;;;;3.42;1.23;;;15.60;90.20;;;14.55;85.85;99730.91;5067702;28;20040;-85
2021/10/05 08:57:38;;;;;;;4.05;1.60;;;15.60;89.90;;;14.61;85.39;99733.56;5068213;28;20040;-86
2021/10/05 09:00:09;;;;;;;2.55;1.00;;;15.70;89.30;;;14.68;84.93;99724.41;5067973;28;20090;-86
2021/10/05 09:02:52;;;;;;;;;;;15.80;89.00;;;14.65;83.76;99723.81;5069002;28;20075;-86
2021/10/05 09:05:21;;;;;;;4.50;1.20;;;15.80;87.80;;;14.66;84.49;99725.50;5071830;28;20026;-86
2021/10/05 09:07:51;;;;;;;4.03;1.13;;;15.90;88.50;;;14.65;83.52;99725.72;5053879;28;20405;-86
2021/10/05 09:10:23;;;;;;;2.55;1.00;;;15.90;87.80;;;14.63;84.61;99720.47;5071708;28;20110;-86
2021/10/05 09:12:51;;;;;;;2.33;1.00;;;15.90;88.30;;;14.58;84.19;99720.34;5086928;28;20044;-86
2021/10/05 09:15:22;;;;;;;3.60;1.15;;;15.90;88.10;;;14.62;84.27;99724.31;5085777;28;20046;-86
2021/10/05 09:17:53;;;;;;;2.47;1.05;;;15.90;87.90;;;14.64;84.20;99719.44;5071604;28;20136;-86
2021/10/05 09:20:24;;;;;;;2.22;1.00;;;16.00;87.60;;;14.65;83.57;99714.78;5071437;28;20118;-86
2021/10/05 09:22:59;;;;;;;;;;;15.90;87.10;;;14.72;84.13;99711.97;5072068;28;20123;-86
2021/10/05 09:25:31;;;;;;;3.72;1.58;;;16.00;88.10;;;14.81;83.69;99707.81;5071737;28;19928;-86
2021/10/05 09:27:59;;;;;;;3.38;1.30;;;16.00;87.70;;;14.86;82.70;99708.78;5070866;28;20098;-86
2021/10/05 09:30:27;;;;;;;3.65;1.33;;;16.10;87.10;;;14.92;82.65;99708.94;5071346;28;20040;-86
2021/10/05 09:33:01;;;;;;;3.33;1.20;;;16.10;87.00;;;14.95;81.96;99700.25;5071662;28;20143;-86
2021/10/05 09:35:44;;;;;;;4.45;1.10;;;16.10;86.80;;;14.97;83.01;99693.47;5071549;28;20040;-86
2021/10/05 09:38:17;;;;;;;2.30;0.90;;;16.10;86.80;;;14.94;81.28;99698.56;5071439;28;20056;-86
2021/10/05 09:40:57;;;;;;;6.05;1.15;;;16.20;86.50;;;14.91;81.09;99694.41;5071295;28;20127;-87
2021/10/05 09:43:25;;;;;;;2.03;0.90;;;16.20;86.00;;;14.90;81.45;99683.66;5070911;28;20052;-86
2021/10/05 09:45:54;;;;;;;3.00;1.20;;;16.20;85.80;;;14.85;80.96;99687.13;5071253;28;20128;-87
2021/10/05 09:48:23;;;;;;;4.03;1.15;;;16.20;85.70;;;14.85;80.41;99679.72;5071048;28;20040;-87
2021/10/05 09:50:51;;;;;;;3.85;1.00;;;16.20;85.50;;;14.85;81.54;99679.72;5070900;28;20044;-87
2021/10/05 09:53:19;;;;;;;3.63;1.10;;;16.30;85.80;;;14.88;81.39;99669.38;5068966;28;20124;-87
2021/10/05 09:55:48;;;;;;;6.05;1.10;;;16.30;85.80;;;14.92;81.34;99665.91;5070823;28;20058;-87
2021/10/05 09:58:16;;;;;;;4.00;1.10;;;16.30;85.40;;;14.97;81.89;99665.22;5070601;28;20087;-87
2021/10/05 10:00:47;;;;;;;2.50;0.90;;;16.30;85.80;;;15.00;80.88;99659.25;5071076;28;20075;-88
2021/10/05 10:03:18;;;;;;;;;;;16.40;85.30;;;15.03;81.60;99645.09;5067709;28;20037;-85
2021/10/05 10:05:46;;;;;;;3.75;1.02;;;16.40;85.80;;;15.02;79.90;99651.66;5070584;28;19952;-85
2021/10/05 10:08:15;;;;;;;4.20;1.05;;;16.40;83.90;;;14.99;80.33;99638.44;5070357;28;20102;-87
2021/10/05 10:10:42;;;;;;;3.40;1.05;;;16.40;84.70;;;15.00;80.12;99640.94;5052170;28;20152;-87
2021/10/05 10:13:13;;;;;;;3.50;1.00;;;16.50;84.30;;;14.96;80.49;99636.16;5072644;28;20052;-86
2021/10/05 10:15:43;;;;;;;2.42;1.00;;;16.50;84.60;;;14.95;80.40;99645.47;5069816;28;20094;-87
2021/10/05 10:18:14;;;;;;;2.75;1.05;;;16.50;84.40;;;14.95;80.52;99632.59;5070459;28;20548;-86
2021/10/05 10:20:44;;;;;;;;;;;16.50;84.80;;;15.00;80.38;99648.31;5070845;28;20045;-87
2021/10/05 10:23:19;;;;;;;4.68;1.00;;;16.50;84.70;;;14.95;79.00;99631.75;5070595;28;20479;-86
2021/10/05 10:25:55;;;;;;;3.00;1.10;;;16.50;83.30;;;14.95;79.56;99618.88;5070417;28;20509;-87
2021/10/05 10:28:28;;;;;;;4.13;1.00;;;16.50;83.80;;;15.05;79.15;99615.56;5070254;28;20119;-87
2021/10/05 10:30:59;;;;;;;2.90;0.93;;;16.50;83.60;;;15.11;79.10;99609.13;5069458;28;20506;-87
2021/10/05 10:33:29;;;;;;;4.88;1.00;;;16.50;83.70;;;15.19;80.40;99614.28;5070430;28;20040;-86
2021/10/05 10:35:59;;;;;;;3.03;1.10;;;16.60;84.50;;;15.20;79.30;99607.72;5069369;28;20059;-86
2021/10/05 10:38:30;;;;;;;3.33;0.95;;;16.60;83.90;;;15.27;78.79;99602.13;5068331;28;20072;-86
2021/10/05 10:40:58;;;;;;;;;;;16.70;83.40;;;15.30;78.39;99600.81;5070721;28;20570;-86
2021/10/05 10:43:29;;;;;;;4.80;1.15;;;16.70;83.20;;;15.31;78.72;99588.78;5070115;28;19928;-86
2021/10/05 10:46:00;;;;;;;4.13;1.10;;;16.70;83.40;;;15.30;77.76;99581.63;5067071;28;20106;-87
2021/10/05 10:48:32;;;;;;;3.85;1.20;;;16.80;82.60;;;15.28;78.24;99575.53;5050736;28;20048;-87
2021/10/05 10:51:15;;;;;;;2.85;1.10;;;16.80;83.20;;;15.26;78.28;99559.31;5068449;28;20068;-86
2021/10/05 10:53:46;;;;;;;3.70;1.00;;;16.80;82.60;;;15.28;78.03;99545.38;5069583;28;20801;-86
2021/10/05 10:56:16;;;;;;;4.53;1.25;;;16.80;82.60;;;15.28;78.67;99545.38;5069894;28;20574;-86
2021/10/05 10:58:48;;;;;;;4.47;1.17;;;16.80;82.90;;;15.27;78.03;99544.56;5069428;28;20036;-86
2021/10/05 11:01:17;;;;;;;5.78;1.10;;;16.80;82.40;;;15.31;78.03;99544.91;5069635;28;20576;-86
2021/10/05 11:03:45;;;;;;;3.22;1.05;;;16.80;82.20;;;15.32;77.46;99538.34;5046720;28;20135;-86
2021/10/05 11:06:18;;;;;;;3.78;1.20;;;16.90;82.00;;;15.38;78.81;99537.38;5049709;28;20128;-88
2021/10/05 11:08:55;;;;;;;2.75;1.17;;;16.90;83.00;;;15.41;77.86;99534.16;5031404;28;20107;-88
2021/10/05 11:11:36;;;;;;;3.30;1.02;;;17.00;82.70;;;15.37;77.13;99528.31;5055581;28;20036;-86
2021/10/05 11:14:07;;;;;;;2.72;1.10;;;16.90;81.90;;;15.38;78.04;99526.41;5090096;28;20492;-88
2021/10/05 11:16:37;;;;;;;3.25;0.90;;;16.90;82.00;;;15.37;77.66;99516.53;5089850;28;20085;-88
2021/10/05 11:19:11;;;;;;;3.03;1.00;;;17.00;82.20;;;15.39;78.27;99514.38;5080636;28;20075;-87
2021/10/05 11:21:42;;;;;;;10.63;1.00;;;17.00;82.50;;;15.47;77.49;99503.03;5069713;28;20044;-88
2021/10/05 11:24:13;;;;;;;2.60;1.00;;;17.00;81.80;;;15.52;77.45;99497.66;5068167;28;20041;-86
2021/10/05 11:26:45;;;;;;;2.92;1.10;;;17.10;82.00;;;15.54;76.51;99487.28;5051691;28;20048;-88
2021/10/05 11:29:12;;;;;;;;;;;17.10;81.20;;;15.57;77.57;99484.06;5065311;28;21065;-86
2021/10/05 11:31:51;;;;;;;3.75;1.10;;;17.10;82.10;;;15.59;76.37;99484.66;5051154;28;19926;-84
2021/10/05 11:34:20;;;;;;;3.58;1.00;;;17.10;81.10;;;15.58;76.86;99480.22;5067512;28;20131;-86
2021/10/05 11:36:50;;;;;;;5.55;1.23;;;17.10;81.60;;;15.62;76.34;99486.06;5042494;28;20105;-86
2021/10/05 11:39:22;;;;;;;3.42;1.08;;;17.20;81.10;;;15.62;76.96;99483.31;5050364;28;20512;-86
2021/10/05 11:41:52;;;;;;;2.97;1.13;;;17.20;81.30;;;15.65;77.09;99480.09;5051003;28;20147;-86
2021/10/05 11:44:23;;;;;;;3.95;1.20;;;17.10;81.70;;;15.63;76.04;99471.25;5050962;28;20094;-86
2021/10/05 11:47:00;;;;;;;4.57;1.10;;;17.20;80.80;;;15.62;76.32;99470.44;5074471;28;20032;-86
2021/10/05 11:49:30;;;;;;;3.97;0.90;;;17.20;81.00;;;15.63;76.79;99455.66;5065722;28;20101;-87
2021/10/05 11:52:01;;;;;;;3.15;1.10;;;17.20;81.40;;;15.65;76.21;99460.91;5055408;28;20151;-86
2021/10/05 11:54:31;;;;;;;2.83;1.00;;;17.20;80.80;;;15.69;76.31;99453.00;5050646;28;20088;-89
2021/10/05 11:57:01;;;;;;;2.47;0.90;;;17.20;81.20;;;15.74;77.21;99444.91;5068989;28;20036;-86
2021/10/05 11:59:31;;;;;;;3.78;1.00;;;17.30;81.70;;;15.77;76.99;99455.41;5068768;28;20048;-87
2021/10/05 12:02:04;;;;;;;4.63;1.30;;;17.30;81.50;;;15.81;76.77;99456.56;5087685;28;20101;-87
2021/10/05 12:04:33;;;;;;;2.40;0.93;;;17.30;81.30;;;15.85;75.22;99452.25;5054939;28;20110;-87
2021/10/05 12:07:06;;;;;;;4.10;1.10;;;17.30;80.20;;;15.85;74.93;99446.78;5049550;28;20513;-89
2021/10/05 12:09:33;;;;;;;5.70;1.23;;;17.40;79.80;;;15.85;75.09;99459.66;5058490;28;20652;-88
2021/10/05 12:12:11;;;;;;;2.97;1.27;;;17.40;79.90;;;15.85;74.68;99463.22;5074090;28;20068;-89
2021/10/05 12:14:42;;;;;;;6.80;1.50;;;17.40;80.00;;;15.88;74.53;99461.91;5073593;28;20040;-88
2021/10/05 12:17:14;;;;;;;2.58;0.85;;;17.40;79.70;;;15.96;74.62;99458.78;5065760;28;20040;-87
2021/10/05 12:19:48;;;;;;;3.90;1.10;;;17.50;80.00;;;16.12;73.78;99465.38;5069919;28;20081;-88
2021/10/05 12:22:21;;;;;;;3.80;1.42;;;17.50;79.40;;;16.25;73.37;99451.31;5070205;28;20151;-87
2021/10/05 12:24:52;;;;;;;4.95;1.00;;;17.50;79.30;;;16.32;74.07;99457.50;5043899;28;20049;-87
2021/10/05 12:27:21;;;;;;;;;;;17.60;80.00;;;16.35;73.41;99453.41;5056031;28;20542;-88
2021/10/05 12:29:52;;;;;;;4.15;1.38;;;17.60;79.70;;;16.35;72.81;99448.75;5087894;28;20026;-89
2021/10/05 12:32:32;;;;;;;5.60;1.20;;;17.60;79.10;;;16.41;73.94;99441.44;5070337;28;20102;-87
2021/10/05 12:34:59;;;;;;;2.72;0.95;;;17.70;80.10;;;16.48;73.68;99433.84;5062886;28;20102;-87
2021/10/05 12:37:31;;;;;;;3.13;0.93;;;17.60;79.80;;;16.53;74.16;99435.88;5038235;28;20049;-89
2021/10/05 12:40:02;;;;;;;3.90;1.20;;;17.70;80.50;;;16.58;74.38;99438.69;5051156;28;20111;-88
2021/10/05 12:42:42;;;;;;;6.13;1.33;;;17.80;80.90;;;16.58;73.52;99427.69;5058321;28;20074;-88
2021/10/05 12:45:14;;;;;;;2.58;1.02;;;17.80;80.00;;;16.53;74.18;99435.88;5070723;28;20045;-88